sensor_id;sensor_type;location;lat;lon;timestamp;P1;durP1;ratioP1;P2;durP2;ratioP2
72920;SDS011;61064;51.654;5.476;2023-03-01T00:01:06;13.50;;;6.57;;
72920;SDS011;61064;51.654;5.476;2023-03-01T00:03:34;16.33;;;6.18;;
72920;SDS011;61064;51.654;5.476;2023-03-01T00:06:00;14.20;;;5.43;;
72920;SDS011;61064;51.654;5.476;2023-03-01T00:08:26;11.18;;;5.00;;
72920;SDS011;61064;51.654;5.476;2023-03-01T00:11:14;10.68;;;5.20;;
72920;SDS011;61064;51.654;5.476;2023-03-01T00:13:39;9.82;;;4.80;;
72920;SDS011;61064;51.654;5.476;2023-03-01T00:16:06;10.70;;;4.30;;
72920;SDS011;61064;51.654;5.476;2023-03-01T00:18:36;9.75;;;4.50;;
72920;SDS011;61064;51.654;5.476;2023-03-01T00:21:02;11.97;;;5.00;;
72920;SDS011;61064;51.654;5.476;2023-03-01T00:23:28;9.48;;;4.53;;
72920;SDS011;61064;51.654;5.476;2023-03-01T00:25:54;11.40;;;4.70;;
72920;SDS011;61064;51.654;5.476;2023-03-01T00:28:20;11.40;;;4.83;;
72920;SDS011;61064;51.654;5.476;2023-03-01T00:30:45;9.18;;;4.63;;
72920;SDS011;61064;51.654;5.476;2023-03-01T00:33:11;10.52;;;4.57;;
72920;SDS011;61064;51.654;5.476;2023-03-01T00:35:37;10.32;;;4.15;;
72920;SDS011;61064;51.654;5.476;2023-03-01T00:38:03;12.23;;;4.30;;
72920;SDS011;61064;51.654;5.476;2023-03-01T00:40:29;10.83;;;4.53;;
72920;SDS011;61064;51.654;5.476;2023-03-01T00:42:56;10.15;;;4.40;;
72920;SDS011;61064;51.654;5.476;2023-03-01T00:45:22;9.57;;;4.43;;
72920;SDS011;61064;51.654;5.476;2023-03-01T00:47:48;10.40;;;4.57;;
72920;SDS011;61064;51.654;5.476;2023-03-01T00:50:14;10.82;;;4.68;;
72920;SDS011;61064;51.654;5.476;2023-03-01T00:52:40;9.68;;;4.40;;
72920;SDS011;61064;51.654;5.476;2023-03-01T00:55:05;10.10;;;4.00;;
72920;SDS011;61064;51.654;5.476;2023-03-01T00:57:31;10.82;;;4.57;;
72920;SDS011;61064;51.654;5.476;2023-03-01T00:59:57;12.03;;;4.80;;
72920;SDS011;61064;51.654;5.476;2023-03-01T01:02:22;10.00;;;4.10;;
72920;SDS011;61064;51.654;5.476;2023-03-01T01:04:48;11.00;;;4.53;;
72920;SDS011;61064;51.654;5.476;2023-03-01T01:07:14;9.90;;;4.05;;
72920;SDS011;61064;51.654;5.476;2023-03-01T01:09:40;9.87;;;3.80;;
72920;SDS011;61064;51.654;5.476;2023-03-01T01:12:06;11.07;;;4.53;;
72920;SDS011;61064;51.654;5.476;2023-03-01T01:14:32;8.55;;;3.90;;
72920;SDS011;61064;51.654;5.476;2023-03-01T01:16:57;9.30;;;4.27;;
72920;SDS011;61064;51.654;5.476;2023-03-01T01:19:23;9.07;;;3.80;;
72920;SDS011;61064;51.654;5.476;2023-03-01T01:21:49;10.45;;;4.10;;
72920;SDS011;61064;51.654;5.476;2023-03-01T01:24:16;10.13;;;4.20;;
72920;SDS011;61064;51.654;5.476;2023-03-01T01:26:42;11.30;;;4.53;;
72920;SDS011;61064;51.654;5.476;2023-03-01T01:29:08;11.00;;;4.30;;
72920;SDS011;61064;51.654;5.476;2023-03-01T01:31:35;10.60;;;4.10;;
72920;SDS011;61064;51.654;5.476;2023-03-01T01:34:01;10.98;;;4.07;;
72920;SDS011;61064;51.654;5.476;2023-03-01T01:36:29;10.98;;;4.40;;
72920;SDS011;61064;51.654;5.476;2023-03-01T01:38:55;10.03;;;3.57;;
72920;SDS011;61064;51.654;5.476;2023-03-01T01:41:21;12.02;;;4.10;;
72920;SDS011;61064;51.654;5.476;2023-03-01T01:43:47;12.30;;;4.43;;
72920;SDS011;61064;51.654;5.476;2023-03-01T01:46:21;11.80;;;4.37;;
72920;SDS011;61064;51.654;5.476;2023-03-01T01:49:07;13.50;;;4.22;;
72920;SDS011;61064;51.654;5.476;2023-03-01T01:51:43;11.02;;;4.43;;
72920;SDS011;61064;51.654;5.476;2023-03-01T01:54:15;10.43;;;4.32;;
72920;SDS011;61064;51.654;5.476;2023-03-01T01:56:55;9.63;;;3.92;;
72920;SDS011;61064;51.654;5.476;2023-03-01T01:59:24;10.37;;;4.17;;
72920;SDS011;61064;51.654;5.476;2023-03-01T02:01:51;10.27;;;3.83;;
72920;SDS011;61064;51.654;5.476;2023-03-01T02:04:17;9.75;;;4.03;;
72920;SDS011;61064;51.654;5.476;2023-03-01T02:06:55;9.98;;;4.15;;
72920;SDS011;61064;51.654;5.476;2023-03-01T02:09:44;8.53;;;3.80;;
72920;SDS011;61064;51.654;5.476;2023-03-01T02:12:13;10.88;;;4.18;;
72920;SDS011;61064;51.654;5.476;2023-03-01T02:14:42;11.77;;;4.30;;
72920;SDS011;61064;51.654;5.476;2023-03-01T02:17:07;8.77;;;3.70;;
72920;SDS011;61064;51.654;5.476;2023-03-01T02:22:37;9.67;;;4.00;;
72920;SDS011;61064;51.654;5.476;2023-03-01T02:25:20;9.00;;;3.60;;
72920;SDS011;61064;51.654;5.476;2023-03-01T02:30:43;9.73;;;3.60;;
72920;SDS011;61064;51.654;5.476;2023-03-01T02:33:30;10.00;;;3.42;;
72920;SDS011;61064;51.654;5.476;2023-03-01T02:35:58;10.83;;;3.87;;
72920;SDS011;61064;51.654;5.476;2023-03-01T02:38:26;8.68;;;3.83;;
72920;SDS011;61064;51.654;5.476;2023-03-01T02:40:52;9.43;;;4.00;;
72920;SDS011;61064;51.654;5.476;2023-03-01T02:43:20;7.93;;;3.22;;
72920;SDS011;61064;51.654;5.476;2023-03-01T02:45:49;10.27;;;3.40;;
72920;SDS011;61064;51.654;5.476;2023-03-01T02:48:16;8.77;;;3.43;;
72920;SDS011;61064;51.654;5.476;2023-03-01T02:53:32;8.65;;;3.50;;
72920;SDS011;61064;51.654;5.476;2023-03-01T02:56:06;9.18;;;3.50;;
72920;SDS011;61064;51.654;5.476;2023-03-01T02:58:38;10.05;;;4.05;;
72920;SDS011;61064;51.654;5.476;2023-03-01T03:01:11;9.87;;;3.30;;
72920;SDS011;61064;51.654;5.476;2023-03-01T03:03:38;8.48;;;3.40;;
72920;SDS011;61064;51.654;5.476;2023-03-01T03:06:04;8.47;;;3.63;;
72920;SDS011;61064;51.654;5.476;2023-03-01T03:08:29;9.40;;;3.53;;
72920;SDS011;61064;51.654;5.476;2023-03-01T03:10:55;8.27;;;3.70;;
72920;SDS011;61064;51.654;5.476;2023-03-01T03:13:21;9.20;;;3.58;;
72920;SDS011;61064;51.654;5.476;2023-03-01T03:15:47;9.80;;;3.47;;
72920;SDS011;61064;51.654;5.476;2023-03-01T03:18:14;9.20;;;3.30;;
72920;SDS011;61064;51.654;5.476;2023-03-01T03:20:40;8.38;;;3.25;;
72920;SDS011;61064;51.654;5.476;2023-03-01T03:23:07;9.60;;;3.92;;
72920;SDS011;61064;51.654;5.476;2023-03-01T03:25:32;12.67;;;4.00;;
72920;SDS011;61064;51.654;5.476;2023-03-01T03:28:02;10.88;;;3.90;;
72920;SDS011;61064;51.654;5.476;2023-03-01T03:30:34;9.07;;;4.00;;
72920;SDS011;61064;51.654;5.476;2023-03-01T03:33:00;11.75;;;4.00;;
72920;SDS011;61064;51.654;5.476;2023-03-01T03:35:27;10.73;;;4.07;;
72920;SDS011;61064;51.654;5.476;2023-03-01T03:38:05;9.82;;;4.10;;
72920;SDS011;61064;51.654;5.476;2023-03-01T03:40:40;9.67;;;3.87;;
72920;SDS011;61064;51.654;5.476;2023-03-01T03:43:08;9.27;;;4.32;;
72920;SDS011;61064;51.654;5.476;2023-03-01T03:45:36;10.45;;;3.90;;
72920;SDS011;61064;51.654;5.476;2023-03-01T03:48:02;9.55;;;3.70;;
72920;SDS011;61064;51.654;5.476;2023-03-01T03:50:29;9.83;;;4.03;;
72920;SDS011;61064;51.654;5.476;2023-03-01T03:52:55;9.65;;;4.10;;
72920;SDS011;61064;51.654;5.476;2023-03-01T03:55:20;10.87;;;4.13;;
72920;SDS011;61064;51.654;5.476;2023-03-01T03:57:47;9.97;;;4.33;;
72920;SDS011;61064;51.654;5.476;2023-03-01T04:00:17;10.13;;;4.32;;
72920;SDS011;61064;51.654;5.476;2023-03-01T04:02:44;9.15;;;4.13;;
72920;SDS011;61064;51.654;5.476;2023-03-01T04:05:11;10.15;;;4.30;;
72920;SDS011;61064;51.654;5.476;2023-03-01T04:07:39;10.43;;;4.10;;
72920;SDS011;61064;51.654;5.476;2023-03-01T04:10:06;9.23;;;3.83;;
72920;SDS011;61064;51.654;5.476;2023-03-01T04:12:36;10.95;;;4.28;;
72920;SDS011;61064;51.654;5.476;2023-03-01T04:15:06;9.97;;;3.73;;
72920;SDS011;61064;51.654;5.476;2023-03-01T04:17:39;9.25;;;4.45;;
72920;SDS011;61064;51.654;5.476;2023-03-01T04:20:09;10.45;;;4.30;;
72920;SDS011;61064;51.654;5.476;2023-03-01T04:22:36;9.88;;;4.20;;
72920;SDS011;61064;51.654;5.476;2023-03-01T04:25:02;10.77;;;4.18;;
72920;SDS011;61064;51.654;5.476;2023-03-01T04:27:29;9.18;;;4.10;;
72920;SDS011;61064;51.654;5.476;2023-03-01T04:29:55;9.47;;;3.80;;
72920;SDS011;61064;51.654;5.476;2023-03-01T04:32:20;10.10;;;4.00;;
72920;SDS011;61064;51.654;5.476;2023-03-01T04:34:45;11.10;;;4.47;;
72920;SDS011;61064;51.654;5.476;2023-03-01T04:37:11;9.67;;;4.30;;
72920;SDS011;61064;51.654;5.476;2023-03-01T04:39:36;10.33;;;4.07;;
72920;SDS011;61064;51.654;5.476;2023-03-01T04:42:10;8.82;;;4.07;;
72920;SDS011;61064;51.654;5.476;2023-03-01T04:44:39;9.52;;;4.32;;
72920;SDS011;61064;51.654;5.476;2023-03-01T04:47:05;10.05;;;4.18;;
72920;SDS011;61064;51.654;5.476;2023-03-01T04:49:30;9.33;;;4.23;;
72920;SDS011;61064;51.654;5.476;2023-03-01T04:51:56;9.90;;;4.40;;
72920;SDS011;61064;51.654;5.476;2023-03-01T04:54:26;13.57;;;4.20;;
72920;SDS011;61064;51.654;5.476;2023-03-01T04:57:01;10.10;;;3.95;;
72920;SDS011;61064;51.654;5.476;2023-03-01T04:59:27;9.80;;;4.17;;
72920;SDS011;61064;51.654;5.476;2023-03-01T05:01:53;12.38;;;3.97;;
72920;SDS011;61064;51.654;5.476;2023-03-01T05:04:25;12.88;;;4.00;;
72920;SDS011;61064;51.654;5.476;2023-03-01T05:06:50;10.47;;;4.07;;
72920;SDS011;61064;51.654;5.476;2023-03-01T05:09:16;9.82;;;4.10;;
72920;SDS011;61064;51.654;5.476;2023-03-01T05:11:42;10.60;;;4.33;;
72920;SDS011;61064;51.654;5.476;2023-03-01T05:14:07;10.27;;;4.10;;
72920;SDS011;61064;51.654;5.476;2023-03-01T05:16:34;12.10;;;4.43;;
72920;SDS011;61064;51.654;5.476;2023-03-01T05:19:01;10.38;;;4.03;;
72920;SDS011;61064;51.654;5.476;2023-03-01T05:21:36;9.70;;;4.15;;
72920;SDS011;61064;51.654;5.476;2023-03-01T05:24:23;11.13;;;4.30;;
72920;SDS011;61064;51.654;5.476;2023-03-01T05:26:49;9.77;;;4.10;;
72920;SDS011;61064;51.654;5.476;2023-03-01T05:29:16;10.63;;;4.75;;
72920;SDS011;61064;51.654;5.476;2023-03-01T05:31:42;12.60;;;4.55;;
72920;SDS011;61064;51.654;5.476;2023-03-01T05:34:08;9.93;;;4.37;;
72920;SDS011;61064;51.654;5.476;2023-03-01T05:36:33;10.23;;;4.50;;
72920;SDS011;61064;51.654;5.476;2023-03-01T05:38:59;10.15;;;4.22;;
72920;SDS011;61064;51.654;5.476;2023-03-01T05:41:24;12.60;;;4.33;;
72920;SDS011;61064;51.654;5.476;2023-03-01T05:43:50;11.47;;;4.43;;
72920;SDS011;61064;51.654;5.476;2023-03-01T05:46:15;11.60;;;4.80;;
72920;SDS011;61064;51.654;5.476;2023-03-01T05:48:41;11.07;;;4.53;;
72920;SDS011;61064;51.654;5.476;2023-03-01T05:51:06;11.63;;;4.32;;
72920;SDS011;61064;51.654;5.476;2023-03-01T05:53:31;10.63;;;4.53;;
72920;SDS011;61064;51.654;5.476;2023-03-01T05:55:57;11.07;;;4.27;;
72920;SDS011;61064;51.654;5.476;2023-03-01T05:58:23;10.13;;;4.07;;
72920;SDS011;61064;51.654;5.476;2023-03-01T06:00:49;10.33;;;4.10;;
72920;SDS011;61064;51.654;5.476;2023-03-01T06:03:15;10.18;;;3.95;;
72920;SDS011;61064;51.654;5.476;2023-03-01T06:05:42;10.77;;;4.15;;
72920;SDS011;61064;51.654;5.476;2023-03-01T06:08:09;9.35;;;4.10;;
72920;SDS011;61064;51.654;5.476;2023-03-01T06:10:36;10.00;;;4.33;;
72920;SDS011;61064;51.654;5.476;2023-03-01T06:13:01;11.90;;;4.35;;
72920;SDS011;61064;51.654;5.476;2023-03-01T06:15:27;13.87;;;5.23;;
72920;SDS011;61064;51.654;5.476;2023-03-01T06:17:53;11.73;;;4.83;;
72920;SDS011;61064;51.654;5.476;2023-03-01T06:20:22;16.55;;;6.25;;
72920;SDS011;61064;51.654;5.476;2023-03-01T06:22:49;10.27;;;4.45;;
72920;SDS011;61064;51.654;5.476;2023-03-01T06:25:17;11.80;;;4.75;;
72920;SDS011;61064;51.654;5.476;2023-03-01T06:27:44;11.30;;;4.10;;
72920;SDS011;61064;51.654;5.476;2023-03-01T06:30:11;10.48;;;4.20;;
72920;SDS011;61064;51.654;5.476;2023-03-01T06:32:39;10.32;;;4.10;;
72920;SDS011;61064;51.654;5.476;2023-03-01T06:35:08;10.25;;;4.28;;
72920;SDS011;61064;51.654;5.476;2023-03-01T06:37:37;11.10;;;4.50;;
72920;SDS011;61064;51.654;5.476;2023-03-01T06:40:04;14.20;;;5.32;;
72920;SDS011;61064;51.654;5.476;2023-03-01T06:42:37;19.23;;;7.72;;
72920;SDS011;61064;51.654;5.476;2023-03-01T06:45:04;13.32;;;5.65;;
72920;SDS011;61064;51.654;5.476;2023-03-01T06:47:31;9.18;;;4.25;;
72920;SDS011;61064;51.654;5.476;2023-03-01T06:49:58;12.48;;;4.70;;
72920;SDS011;61064;51.654;5.476;2023-03-01T06:52:24;10.77;;;4.28;;
72920;SDS011;61064;51.654;5.476;2023-03-01T06:54:49;10.35;;;4.32;;
72920;SDS011;61064;51.654;5.476;2023-03-01T06:57:15;10.03;;;4.40;;
72920;SDS011;61064;51.654;5.476;2023-03-01T06:59:40;11.80;;;4.63;;
72920;SDS011;61064;51.654;5.476;2023-03-01T07:02:06;9.30;;;4.30;;
72920;SDS011;61064;51.654;5.476;2023-03-01T07:04:31;11.53;;;4.30;;
72920;SDS011;61064;51.654;5.476;2023-03-01T07:06:57;9.90;;;4.78;;
72920;SDS011;61064;51.654;5.476;2023-03-01T07:09:23;9.40;;;4.00;;
72920;SDS011;61064;51.654;5.476;2023-03-01T07:11:48;10.93;;;4.60;;
72920;SDS011;61064;51.654;5.476;2023-03-01T07:14:15;10.10;;;4.13;;
72920;SDS011;61064;51.654;5.476;2023-03-01T07:16:40;9.95;;;3.97;;
72920;SDS011;61064;51.654;5.476;2023-03-01T07:19:06;10.93;;;4.23;;
72920;SDS011;61064;51.654;5.476;2023-03-01T07:21:31;9.07;;;4.13;;
72920;SDS011;61064;51.654;5.476;2023-03-01T07:23:57;9.93;;;4.40;;
72920;SDS011;61064;51.654;5.476;2023-03-01T07:26:22;9.70;;;4.50;;
72920;SDS011;61064;51.654;5.476;2023-03-01T07:28:47;9.77;;;4.10;;
72920;SDS011;61064;51.654;5.476;2023-03-01T07:31:13;9.85;;;4.45;;
72920;SDS011;61064;51.654;5.476;2023-03-01T07:33:39;11.57;;;4.30;;
72920;SDS011;61064;51.654;5.476;2023-03-01T07:36:04;9.30;;;4.30;;
72920;SDS011;61064;51.654;5.476;2023-03-01T07:38:30;10.65;;;4.47;;
72920;SDS011;61064;51.654;5.476;2023-03-01T07:40:59;15.83;;;7.23;;
72920;SDS011;61064;51.654;5.476;2023-03-01T07:43:27;12.55;;;5.57;;
72920;SDS011;61064;51.654;5.476;2023-03-01T07:45:54;10.30;;;4.40;;
72920;SDS011;61064;51.654;5.476;2023-03-01T07:48:19;14.03;;;5.00;;
72920;SDS011;61064;51.654;5.476;2023-03-01T07:50:45;12.43;;;4.90;;
72920;SDS011;61064;51.654;5.476;2023-03-01T07:53:10;10.57;;;4.47;;
72920;SDS011;61064;51.654;5.476;2023-03-01T07:55:36;13.70;;;4.77;;
72920;SDS011;61064;51.654;5.476;2023-03-01T07:58:02;12.02;;;4.93;;
72920;SDS011;61064;51.654;5.476;2023-03-01T08:00:28;14.40;;;5.28;;
72920;SDS011;61064;51.654;5.476;2023-03-01T08:02:53;10.50;;;4.60;;
72920;SDS011;61064;51.654;5.476;2023-03-01T08:05:19;11.30;;;4.60;;
72920;SDS011;61064;51.654;5.476;2023-03-01T08:07:44;13.07;;;5.13;;
72920;SDS011;61064;51.654;5.476;2023-03-01T08:10:10;12.37;;;5.33;;
72920;SDS011;61064;51.654;5.476;2023-03-01T08:12:35;13.85;;;6.03;;
72920;SDS011;61064;51.654;5.476;2023-03-01T08:15:01;12.98;;;5.38;;
72920;SDS011;61064;51.654;5.476;2023-03-01T08:17:26;11.95;;;5.13;;
72920;SDS011;61064;51.654;5.476;2023-03-01T08:19:52;11.93;;;5.43;;
72920;SDS011;61064;51.654;5.476;2023-03-01T08:22:17;11.40;;;4.57;;
72920;SDS011;61064;51.654;5.476;2023-03-01T08:24:43;11.60;;;5.20;;
72920;SDS011;61064;51.654;5.476;2023-03-01T08:27:08;12.70;;;4.97;;
72920;SDS011;61064;51.654;5.476;2023-03-01T08:29:33;12.00;;;5.13;;
72920;SDS011;61064;51.654;5.476;2023-03-01T08:31:59;12.87;;;5.50;;
72920;SDS011;61064;51.654;5.476;2023-03-01T08:34:25;14.53;;;5.90;;
72920;SDS011;61064;51.654;5.476;2023-03-01T08:36:50;11.93;;;5.20;;
72920;SDS011;61064;51.654;5.476;2023-03-01T08:39:17;10.40;;;4.70;;
72920;SDS011;61064;51.654;5.476;2023-03-01T08:41:44;10.02;;;4.65;;
72920;SDS011;61064;51.654;5.476;2023-03-01T08:44:10;10.27;;;4.88;;
72920;SDS011;61064;51.654;5.476;2023-03-01T08:46:38;13.35;;;5.40;;
72920;SDS011;61064;51.654;5.476;2023-03-01T08:49:06;10.73;;;4.83;;
72920;SDS011;61064;51.654;5.476;2023-03-01T08:51:33;11.15;;;5.03;;
72920;SDS011;61064;51.654;5.476;2023-03-01T08:54:02;11.20;;;4.80;;
72920;SDS011;61064;51.654;5.476;2023-03-01T08:56:29;11.25;;;4.82;;
72920;SDS011;61064;51.654;5.476;2023-03-01T08:58:54;11.33;;;4.90;;
72920;SDS011;61064;51.654;5.476;2023-03-01T09:01:19;9.87;;;4.60;;
72920;SDS011;61064;51.654;5.476;2023-03-01T09:03:45;12.80;;;4.70;;
72920;SDS011;61064;51.654;5.476;2023-03-01T09:06:10;11.57;;;5.13;;
72920;SDS011;61064;51.654;5.476;2023-03-01T09:08:37;10.70;;;4.80;;
72920;SDS011;61064;51.654;5.476;2023-03-01T09:11:05;10.23;;;4.53;;
72920;SDS011;61064;51.654;5.476;2023-03-01T09:13:32;10.73;;;4.72;;
72920;SDS011;61064;51.654;5.476;2023-03-01T09:15:58;14.50;;;4.67;;
72920;SDS011;61064;51.654;5.476;2023-03-01T09:18:25;10.82;;;4.63;;
72920;SDS011;61064;51.654;5.476;2023-03-01T09:20:50;10.60;;;4.63;;
72920;SDS011;61064;51.654;5.476;2023-03-01T09:23:16;13.17;;;5.13;;
72920;SDS011;61064;51.654;5.476;2023-03-01T09:25:41;9.57;;;4.00;;
72920;SDS011;61064;51.654;5.476;2023-03-01T09:28:06;11.07;;;4.30;;
72920;SDS011;61064;51.654;5.476;2023-03-01T09:30:32;10.83;;;4.13;;
72920;SDS011;61064;51.654;5.476;2023-03-01T09:32:57;10.30;;;4.30;;
72920;SDS011;61064;51.654;5.476;2023-03-01T09:35:23;14.37;;;4.17;;
72920;SDS011;61064;51.654;5.476;2023-03-01T09:37:49;10.13;;;4.40;;
72920;SDS011;61064;51.654;5.476;2023-03-01T09:40:16;9.88;;;4.25;;
72920;SDS011;61064;51.654;5.476;2023-03-01T09:43:06;9.68;;;3.80;;
72920;SDS011;61064;51.654;5.476;2023-03-01T09:45:40;8.40;;;3.80;;
72920;SDS011;61064;51.654;5.476;2023-03-01T09:48:11;8.53;;;3.60;;
72920;SDS011;61064;51.654;5.476;2023-03-01T09:50:41;9.00;;;3.63;;
72920;SDS011;61064;51.654;5.476;2023-03-01T09:53:18;7.93;;;3.47;;
72920;SDS011;61064;51.654;5.476;2023-03-01T09:55:51;8.00;;;3.20;;
72920;SDS011;61064;51.654;5.476;2023-03-01T10:06:24;8.68;;;3.40;;
72920;SDS011;61064;51.654;5.476;2023-03-01T10:09:00;8.33;;;3.27;;
72920;SDS011;61064;51.654;5.476;2023-03-01T10:11:40;8.85;;;3.40;;
72920;SDS011;61064;51.654;5.476;2023-03-01T10:17:02;8.77;;;3.03;;
72920;SDS011;61064;51.654;5.476;2023-03-01T10:19:44;9.27;;;3.50;;
72920;SDS011;61064;51.654;5.476;2023-03-01T10:24:36;9.63;;;3.30;;
72920;SDS011;61064;51.654;5.476;2023-03-01T10:27:07;8.53;;;3.10;;
72920;SDS011;61064;51.654;5.476;2023-03-01T10:30:22;8.13;;;3.30;;
72920;SDS011;61064;51.654;5.476;2023-03-01T10:32:28;8.70;;;3.38;;
72920;SDS011;61064;51.654;5.476;2023-03-01T10:34:54;9.95;;;3.70;;
72920;SDS011;61064;51.654;5.476;2023-03-01T10:37:20;8.77;;;3.40;;
72920;SDS011;61064;51.654;5.476;2023-03-01T10:39:54;8.50;;;3.33;;
72920;SDS011;61064;51.654;5.476;2023-03-01T10:42:22;9.88;;;3.67;;
72920;SDS011;61064;51.654;5.476;2023-03-01T10:44:52;7.50;;;3.30;;
72920;SDS011;61064;51.654;5.476;2023-03-01T10:47:20;9.20;;;3.88;;
72920;SDS011;61064;51.654;5.476;2023-03-01T10:52:21;9.40;;;3.83;;
72920;SDS011;61064;51.654;5.476;2023-03-01T10:54:56;8.50;;;3.40;;
72920;SDS011;61064;51.654;5.476;2023-03-01T10:57:28;8.80;;;3.47;;
72920;SDS011;61064;51.654;5.476;2023-03-01T11:03:27;9.73;;;3.95;;
72920;SDS011;61064;51.654;5.476;2023-03-01T11:05:59;8.85;;;4.00;;
72920;SDS011;61064;51.654;5.476;2023-03-01T11:08:35;9.13;;;4.00;;
72920;SDS011;61064;51.654;5.476;2023-03-01T11:14:03;10.18;;;3.85;;
72920;SDS011;61064;51.654;5.476;2023-03-01T11:16:36;11.10;;;3.90;;
72920;SDS011;61064;51.654;5.476;2023-03-01T11:21:33;8.03;;;3.70;;
72920;SDS011;61064;51.654;5.476;2023-03-01T11:24:09;8.02;;;4.00;;
72920;SDS011;61064;51.654;5.476;2023-03-01T11:26:38;10.07;;;3.97;;
72920;SDS011;61064;51.654;5.476;2023-03-01T11:29:12;9.77;;;4.00;;
72920;SDS011;61064;51.654;5.476;2023-03-01T11:31:48;10.15;;;3.95;;
72920;SDS011;61064;51.654;5.476;2023-03-01T11:34:16;10.43;;;3.70;;
72920;SDS011;61064;51.654;5.476;2023-03-01T11:36:54;12.45;;;3.88;;
72920;SDS011;61064;51.654;5.476;2023-03-01T11:42:00;8.30;;;3.53;;
72920;SDS011;61064;51.654;5.476;2023-03-01T11:44:31;10.02;;;3.85;;
72920;SDS011;61064;51.654;5.476;2023-03-01T11:53:05;9.18;;;4.43;;
72920;SDS011;61064;51.654;5.476;2023-03-01T11:55:48;8.93;;;4.20;;
72920;SDS011;61064;51.654;5.476;2023-03-01T11:58:34;10.60;;;4.70;;
72920;SDS011;61064;51.654;5.476;2023-03-01T12:06:55;9.43;;;3.95;;
72920;SDS011;61064;51.654;5.476;2023-03-01T12:12:07;9.02;;;3.88;;
72920;SDS011;61064;51.654;5.476;2023-03-01T12:20:28;8.88;;;4.18;;
72920;SDS011;61064;51.654;5.476;2023-03-01T12:28:34;9.50;;;4.57;;
72920;SDS011;61064;51.654;5.476;2023-03-01T12:37:08;10.05;;;3.83;;
72920;SDS011;61064;51.654;5.476;2023-03-01T12:45:30;9.25;;;3.92;;
72920;SDS011;61064;51.654;5.476;2023-03-01T12:50:55;10.10;;;4.38;;
72920;SDS011;61064;51.654;5.476;2023-03-01T12:53:27;8.52;;;4.10;;
72920;SDS011;61064;51.654;5.476;2023-03-01T12:55:58;8.37;;;4.27;;
72920;SDS011;61064;51.654;5.476;2023-03-01T13:01:47;10.05;;;4.32;;
72920;SDS011;61064;51.654;5.476;2023-03-01T13:07:08;10.32;;;4.30;;
72920;SDS011;61064;51.654;5.476;2023-03-01T13:09:47;9.00;;;3.97;;
72920;SDS011;61064;51.654;5.476;2023-03-01T13:17:56;9.55;;;4.05;;
72920;SDS011;61064;51.654;5.476;2023-03-01T13:20:34;11.73;;;5.97;;
72920;SDS011;61064;51.654;5.476;2023-03-01T13:31:11;11.20;;;4.70;;
72920;SDS011;61064;51.654;5.476;2023-03-01T13:33:59;10.48;;;4.35;;
72920;SDS011;61064;51.654;5.476;2023-03-01T13:46:47;8.80;;;4.23;;
72920;SDS011;61064;51.654;5.476;2023-03-01T13:49:16;8.93;;;4.15;;
72920;SDS011;61064;51.654;5.476;2023-03-01T13:51:46;11.50;;;4.15;;
72920;SDS011;61064;51.654;5.476;2023-03-01T13:54:14;10.67;;;4.87;;
72920;SDS011;61064;51.654;5.476;2023-03-01T13:56:41;12.23;;;6.10;;
72920;SDS011;61064;51.654;5.476;2023-03-01T13:59:19;13.52;;;7.00;;
72920;SDS011;61064;51.654;5.476;2023-03-01T14:01:54;13.43;;;5.65;;
72920;SDS011;61064;51.654;5.476;2023-03-01T14:04:31;11.25;;;5.97;;
72920;SDS011;61064;51.654;5.476;2023-03-01T14:09:37;12.50;;;6.28;;
72920;SDS011;61064;51.654;5.476;2023-03-01T14:12:26;11.65;;;5.18;;
72920;SDS011;61064;51.654;5.476;2023-03-01T14:15:29;15.68;;;7.70;;
72920;SDS011;61064;51.654;5.476;2023-03-01T14:18:10;9.35;;;4.45;;
72920;SDS011;61064;51.654;5.476;2023-03-01T14:20:42;11.63;;;5.10;;
72920;SDS011;61064;51.654;5.476;2023-03-01T14:23:17;10.00;;;4.28;;
72920;SDS011;61064;51.654;5.476;2023-03-01T14:25:48;9.43;;;4.30;;
72920;SDS011;61064;51.654;5.476;2023-03-01T14:28:20;11.93;;;5.18;;
72920;SDS011;61064;51.654;5.476;2023-03-01T14:30:52;9.90;;;4.60;;
72920;SDS011;61064;51.654;5.476;2023-03-01T14:35:59;10.55;;;4.68;;
72920;SDS011;61064;51.654;5.476;2023-03-01T14:38:34;9.65;;;4.65;;
72920;SDS011;61064;51.654;5.476;2023-03-01T14:41:14;10.35;;;4.40;;
72920;SDS011;61064;51.654;5.476;2023-03-01T14:43:53;9.90;;;4.88;;
72920;SDS011;61064;51.654;5.476;2023-03-01T14:46:26;10.23;;;4.73;;
72920;SDS011;61064;51.654;5.476;2023-03-01T14:49:01;11.93;;;5.50;;
72920;SDS011;61064;51.654;5.476;2023-03-01T14:51:58;10.00;;;4.63;;
72920;SDS011;61064;51.654;5.476;2023-03-01T14:54:28;8.68;;;4.00;;
72920;SDS011;61064;51.654;5.476;2023-03-01T14:56:58;8.80;;;3.88;;
72920;SDS011;61064;51.654;5.476;2023-03-01T14:59:25;10.43;;;4.03;;
72920;SDS011;61064;51.654;5.476;2023-03-01T15:01:51;9.10;;;4.18;;
72920;SDS011;61064;51.654;5.476;2023-03-01T15:04:20;9.73;;;4.20;;
72920;SDS011;61064;51.654;5.476;2023-03-01T15:06:50;9.40;;;4.20;;
72920;SDS011;61064;51.654;5.476;2023-03-01T15:09:16;9.32;;;4.18;;
72920;SDS011;61064;51.654;5.476;2023-03-01T15:11:43;10.63;;;4.87;;
72920;SDS011;61064;51.654;5.476;2023-03-01T15:17:20;11.32;;;4.70;;
72920;SDS011;61064;51.654;5.476;2023-03-01T15:19:46;10.70;;;5.70;;
72920;SDS011;61064;51.654;5.476;2023-03-01T15:22:14;11.20;;;4.60;;
72920;SDS011;61064;51.654;5.476;2023-03-01T15:24:41;9.07;;;4.50;;
72920;SDS011;61064;51.654;5.476;2023-03-01T15:27:15;10.00;;;4.35;;
72920;SDS011;61064;51.654;5.476;2023-03-01T15:29:48;10.13;;;4.57;;
72920;SDS011;61064;51.654;5.476;2023-03-01T15:34:56;10.35;;;4.10;;
72920;SDS011;61064;51.654;5.476;2023-03-01T15:37:37;9.70;;;4.47;;
72920;SDS011;61064;51.654;5.476;2023-03-01T15:43:03;10.88;;;4.05;;
72920;SDS011;61064;51.654;5.476;2023-03-01T15:45:30;10.80;;;3.92;;
72920;SDS011;61064;51.654;5.476;2023-03-01T15:48:03;9.63;;;4.20;;
72920;SDS011;61064;51.654;5.476;2023-03-01T15:50:57;12.07;;;4.57;;
72920;SDS011;61064;51.654;5.476;2023-03-01T15:53:24;10.25;;;4.50;;
72920;SDS011;61064;51.654;5.476;2023-03-01T15:55:52;10.75;;;4.45;;
72920;SDS011;61064;51.654;5.476;2023-03-01T16:00:47;10.57;;;4.38;;
72920;SDS011;61064;51.654;5.476;2023-03-01T16:03:15;10.82;;;4.38;;
72920;SDS011;61064;51.654;5.476;2023-03-01T16:05:47;10.07;;;4.43;;
72920;SDS011;61064;51.654;5.476;2023-03-01T16:08:13;8.70;;;3.93;;
72920;SDS011;61064;51.654;5.476;2023-03-01T16:10:39;9.30;;;4.20;;
72920;SDS011;61064;51.654;5.476;2023-03-01T16:13:06;10.68;;;3.75;;
72920;SDS011;61064;51.654;5.476;2023-03-01T16:15:33;10.27;;;4.18;;
72920;SDS011;61064;51.654;5.476;2023-03-01T16:18:02;8.77;;;3.95;;
72920;SDS011;61064;51.654;5.476;2023-03-01T16:20:30;9.80;;;4.23;;
72920;SDS011;61064;51.654;5.476;2023-03-01T16:23:00;10.85;;;3.88;;
72920;SDS011;61064;51.654;5.476;2023-03-01T16:25:30;9.23;;;3.97;;
72920;SDS011;61064;51.654;5.476;2023-03-01T16:27:57;10.57;;;4.00;;
72920;SDS011;61064;51.654;5.476;2023-03-01T16:30:25;9.55;;;3.97;;
72920;SDS011;61064;51.654;5.476;2023-03-01T16:32:51;11.30;;;4.60;;
72920;SDS011;61064;51.654;5.476;2023-03-01T16:35:18;9.07;;;3.65;;
72920;SDS011;61064;51.654;5.476;2023-03-01T16:37:45;8.32;;;3.78;;
72920;SDS011;61064;51.654;5.476;2023-03-01T16:40:22;8.20;;;3.53;;
72920;SDS011;61064;51.654;5.476;2023-03-01T16:42:47;9.23;;;3.90;;
72920;SDS011;61064;51.654;5.476;2023-03-01T16:45:14;10.32;;;4.05;;
72920;SDS011;61064;51.654;5.476;2023-03-01T16:47:40;12.07;;;4.17;;
72920;SDS011;61064;51.654;5.476;2023-03-01T16:50:05;8.53;;;3.33;;
72920;SDS011;61064;51.654;5.476;2023-03-01T16:52:31;9.10;;;3.80;;
72920;SDS011;61064;51.654;5.476;2023-03-01T16:54:58;10.90;;;3.90;;